createdAt,value
2022-12-04T00:01:36.742Z,16.20
2022-12-04T00:06:40.058Z,16.19
2022-12-04T00:11:43.462Z,16.16
2022-12-04T00:16:47.720Z,16.12
2022-12-04T00:21:51.829Z,16.13
2022-12-04T00:26:55.375Z,16.13
2022-12-04T00:31:58.955Z,16.10
2022-12-04T00:37:02.780Z,16.14
2022-12-04T00:42:06.116Z,16.16
2022-12-04T00:47:09.703Z,16.17
2022-12-04T00:52:14.302Z,16.10
2022-12-04T00:57:17.843Z,16.08
2022-12-04T01:02:21.304Z,16.10
2022-12-04T01:07:24.667Z,16.10
2022-12-04T01:12:28.005Z,16.09
2022-12-04T01:17:31.860Z,16.07
2022-12-04T01:22:35.508Z,16.08
2022-12-04T01:27:39.463Z,16.08
2022-12-04T01:32:44.082Z,16.09
2022-12-04T01:37:47.433Z,16.09
2022-12-04T01:42:51.034Z,16.05
2022-12-04T01:47:58.897Z,16.05
2022-12-04T01:53:02.403Z,16.03
2022-12-04T01:58:07.677Z,16.03
2022-12-04T02:03:13.301Z,16.02
2022-12-04T02:08:17.060Z,16.02
2022-12-04T02:13:23.330Z,16.07
2022-12-04T02:18:39.110Z,16.13
2022-12-04T02:24:11.338Z,16.14
2022-12-04T02:29:30.179Z,16.15
2022-12-04T02:34:56.661Z,16.17
2022-12-04T02:40:12.085Z,16.17
2022-12-04T02:45:21.199Z,16.18
2022-12-04T02:50:24.938Z,16.14
2022-12-04T02:55:38.195Z,16.16
2022-12-04T03:00:44.108Z,16.16
2022-12-04T03:06:11.312Z,16.19
2022-12-04T03:11:16.170Z,16.19
2022-12-04T03:16:31.822Z,16.22
2022-12-04T03:21:41.711Z,16.24
2022-12-04T03:26:56.432Z,16.21
2022-12-04T03:32:03.780Z,16.21
2022-12-04T03:37:15.450Z,16.18
2022-12-04T03:42:47.844Z,16.17
2022-12-04T03:48:08.012Z,16.13
2022-12-04T03:53:46.897Z,16.14
2022-12-04T03:58:57.292Z,16.14
2022-12-04T04:04:04.873Z,16.15
2022-12-04T04:09:15.139Z,16.10
2022-12-04T04:14:33.663Z,16.09
2022-12-04T04:19:39.686Z,16.06
2022-12-04T04:24:47.286Z,16.02
2022-12-04T04:29:52.704Z,15.99
2022-12-04T04:34:59.421Z,15.98
2022-12-04T04:40:12.346Z,15.95
2022-12-04T04:45:42.366Z,15.95
2022-12-04T04:50:47.136Z,15.98
2022-12-04T04:55:50.809Z,15.97
2022-12-04T05:01:03.949Z,15.98
2022-12-04T05:06:07.643Z,15.99
2022-12-04T05:11:16.015Z,16.04
2022-12-04T05:16:20.729Z,16.07
2022-12-04T05:21:24.504Z,16.17
2022-12-04T05:26:28.781Z,16.21
2022-12-04T05:31:32.389Z,16.17
2022-12-04T05:36:35.762Z,16.22
2022-12-04T05:41:39.370Z,16.25
2022-12-04T05:46:42.964Z,16.35
2022-12-04T05:51:46.711Z,16.39
2022-12-04T05:56:51.891Z,16.29
2022-12-04T06:01:55.608Z,16.21
2022-12-04T06:06:59.155Z,16.12
2022-12-04T06:12:03.413Z,16.17
2022-12-04T06:17:07.196Z,16.17
2022-12-04T06:22:10.836Z,16.17
2022-12-04T06:27:29.459Z,16.26
2022-12-04T06:32:32.691Z,16.42
2022-12-04T06:37:36.114Z,16.63
2022-12-04T06:42:39.721Z,16.79
2022-12-04T06:47:43.216Z,16.85
2022-12-04T06:52:46.749Z,16.94
2022-12-04T06:57:50.081Z,17.04
2022-12-04T07:02:53.725Z,17.15
2022-12-04T07:07:57.349Z,17.24
2022-12-04T07:13:00.807Z,17.39
2022-12-04T07:18:04.863Z,17.49
2022-12-04T07:23:08.484Z,17.54
2022-12-04T07:28:12.022Z,17.60
2022-12-04T07:33:16.640Z,17.64
2022-12-04T07:38:20.702Z,17.71
2022-12-04T07:43:24.903Z,17.72
2022-12-04T07:48:33.269Z,17.87
2022-12-04T07:53:37.649Z,17.94
2022-12-04T07:58:42.368Z,17.94
2022-12-04T08:03:48.469Z,18.10
2022-12-04T08:08:53.653Z,18.21
2022-12-04T08:14:07.002Z,18.26
2022-12-04T08:19:10.477Z,18.36
2022-12-04T08:24:13.985Z,18.45
2022-12-04T08:29:17.450Z,18.52
2022-12-04T08:34:21.092Z,18.56
2022-12-04T08:39:24.694Z,18.67
2022-12-04T08:44:28.159Z,18.80
2022-12-04T08:49:31.558Z,18.85
2022-12-04T08:54:36.353Z,18.89
2022-12-04T08:59:39.777Z,18.99
2022-12-04T09:04:43.470Z,19.09
2022-12-04T09:09:48.508Z,19.14
2022-12-04T09:14:51.993Z,19.26
2022-12-04T09:20:00.555Z,19.29
2022-12-04T09:25:06.731Z,19.38
2022-12-04T09:30:12.672Z,19.43
2022-12-04T09:35:16.201Z,19.59
2022-12-04T09:40:38.093Z,19.71
2022-12-04T09:45:54.224Z,19.80
2022-12-04T09:50:58.379Z,19.88
2022-12-04T09:56:07.048Z,19.93
2022-12-04T10:01:22.270Z,20.01
2022-12-04T10:06:55.155Z,20.11
2022-12-04T10:12:10.605Z,20.19
2022-12-04T10:17:14.150Z,20.23
2022-12-04T10:22:20.218Z,20.26
2022-12-04T10:27:32.758Z,20.33
2022-12-04T10:32:37.130Z,20.38
2022-12-04T10:37:43.619Z,20.44
2022-12-04T10:42:58.120Z,20.46
2022-12-04T10:48:01.690Z,20.45
2022-12-04T10:53:08.256Z,20.47
2022-12-04T10:58:19.310Z,20.57
2022-12-04T11:03:27.634Z,20.62
2022-12-04T11:08:41.481Z,20.62
2022-12-04T11:13:45.448Z,20.62
2022-12-04T11:18:51.022Z,20.62
2022-12-04T11:23:54.860Z,20.65
2022-12-04T11:29:00.479Z,20.70
2022-12-04T11:34:08.476Z,20.73
2022-12-04T11:39:11.907Z,20.76
2022-12-04T11:44:26.132Z,20.81
2022-12-04T11:49:31.860Z,20.83
2022-12-04T11:55:00.242Z,20.74
2022-12-04T12:00:17.356Z,20.62
2022-12-04T12:05:23.301Z,20.47
2022-12-04T12:10:55.758Z,20.32
2022-12-04T12:16:11.475Z,20.17
2022-12-04T12:21:36.568Z,20.02
2022-12-04T12:26:56.255Z,19.92
2022-12-04T12:32:11.975Z,19.82
2022-12-04T12:37:37.437Z,19.67
2022-12-04T12:43:16.641Z,19.60
2022-12-04T12:48:35.018Z,19.56
2022-12-04T12:53:44.823Z,19.48
2022-12-04T12:58:56.522Z,19.40
2022-12-04T13:04:22.576Z,19.34
2022-12-04T13:09:33.665Z,19.32
2022-12-04T13:14:38.031Z,19.26
2022-12-04T13:19:45.868Z,19.19
2022-12-04T13:24:55.048Z,19.12
2022-12-04T13:30:16.958Z,19.08
2022-12-04T13:35:35.129Z,19.01
2022-12-04T13:41:07.332Z,18.91
2022-12-04T13:46:32.284Z,18.82
2022-12-04T13:51:39.202Z,18.76
2022-12-04T13:56:44.946Z,18.67
2022-12-04T14:01:53.236Z,18.63
2022-12-04T14:07:00.532Z,18.52
2022-12-04T14:12:07.619Z,18.46
2022-12-04T14:17:30.549Z,18.36
2022-12-04T14:22:43.857Z,18.28
2022-12-04T14:27:52.590Z,18.20
2022-12-04T14:33:17.652Z,18.10
2022-12-04T14:38:23.159Z,18.01
2022-12-04T14:43:33.667Z,17.98
2022-12-04T14:48:55.231Z,17.90
2022-12-04T14:54:16.122Z,17.83
2022-12-04T14:59:22.449Z,17.78
2022-12-04T15:04:32.285Z,17.74
2022-12-04T15:09:36.495Z,17.69
2022-12-04T15:14:44.303Z,17.64
2022-12-04T15:19:47.660Z,17.59
2022-12-04T15:24:52.439Z,17.54
2022-12-04T15:29:58.008Z,17.52
2022-12-04T15:35:08.094Z,17.47
2022-12-04T15:40:21.843Z,17.44
2022-12-04T15:45:30.442Z,17.39
2022-12-04T15:50:33.952Z,17.37
2022-12-04T15:55:46.528Z,17.36
2022-12-04T16:00:56.869Z,17.34
2022-12-04T16:06:09.302Z,17.30
2022-12-04T16:11:18.459Z,17.32
2022-12-04T16:16:22.857Z,17.29
2022-12-04T16:21:30.975Z,17.26
2022-12-04T16:26:37.031Z,17.25
2022-12-04T16:31:40.851Z,17.21
2022-12-04T16:36:44.840Z,17.18
2022-12-04T16:41:48.626Z,17.12
2022-12-04T16:46:52.333Z,17.09
2022-12-04T16:51:55.811Z,17.06
2022-12-04T16:57:00.567Z,17.03
2022-12-04T17:02:06.874Z,17.05
2022-12-04T17:07:10.406Z,17.02
2022-12-04T17:12:14.235Z,17.01
2022-12-04T17:17:18.744Z,16.97
2022-12-04T17:22:24.321Z,16.97
2022-12-04T17:27:28.688Z,16.93
2022-12-04T17:32:33.690Z,16.93
2022-12-04T17:37:39.037Z,16.92
2022-12-04T17:42:43.319Z,16.89
2022-12-04T17:47:46.832Z,16.87
2022-12-04T17:52:50.726Z,16.85
2022-12-04T17:57:55.139Z,16.82
2022-12-04T18:02:59.571Z,16.76
2022-12-04T18:08:03.466Z,16.78
2022-12-04T18:13:07.084Z,16.78
2022-12-04T18:18:10.504Z,16.75
2022-12-04T18:23:14.107Z,16.75
2022-12-04T18:28:18.754Z,16.73
2022-12-04T18:33:22.391Z,16.70
2022-12-04T18:38:30.531Z,16.69
2022-12-04T18:43:35.226Z,16.69
2022-12-04T18:48:39.757Z,16.68
2022-12-04T18:53:43.413Z,16.70
2022-12-04T18:58:46.804Z,16.66
2022-12-04T19:03:50.180Z,16.65
2022-12-04T19:08:54.061Z,16.64
2022-12-04T19:13:58.931Z,16.64
2022-12-04T19:19:02.826Z,16.62
2022-12-04T19:24:07.006Z,16.62
2022-12-04T19:29:11.338Z,16.64
2022-12-04T19:34:15.602Z,16.65
2022-12-04T19:39:18.916Z,16.65
2022-12-04T19:49:46.752Z,16.69
2022-12-04T19:54:50.329Z,16.71
2022-12-04T19:59:59.181Z,16.70
2022-12-04T20:05:02.999Z,16.70
2022-12-04T20:10:07.738Z,16.70
2022-12-04T20:15:12.578Z,16.72
2022-12-04T20:20:16.145Z,16.79
2022-12-04T20:25:22.012Z,16.81
2022-12-04T20:30:25.510Z,16.83
2022-12-04T20:35:29.008Z,16.86
2022-12-04T20:40:33.822Z,16.85
2022-12-04T20:45:37.087Z,16.87
2022-12-04T20:50:40.406Z,16.89
2022-12-04T20:55:53.624Z,16.92
2022-12-04T21:00:57.031Z,16.93
2022-12-04T21:06:00.154Z,16.88
2022-12-04T21:11:03.418Z,16.86
2022-12-04T21:16:07.153Z,16.81
2022-12-04T21:21:10.608Z,16.82
2022-12-04T21:26:14.763Z,16.82
2022-12-04T21:31:18.689Z,16.83
2022-12-04T21:36:22.356Z,16.84
2022-12-04T21:41:25.904Z,16.86
2022-12-04T21:46:29.432Z,16.84
2022-12-04T21:51:56.418Z,16.86
2022-12-04T21:56:58.731Z,16.84
2022-12-04T22:02:03.678Z,16.89
2022-12-04T22:07:07.452Z,16.92
2022-12-04T22:12:33.267Z,16.93
2022-12-04T22:17:34.411Z,16.95
2022-12-04T22:22:37.757Z,16.93
2022-12-04T22:27:41.206Z,16.94
2022-12-04T22:32:44.937Z,16.95
2022-12-04T22:37:48.301Z,16.94
2022-12-04T22:42:52.059Z,16.98
2022-12-04T22:47:55.564Z,17.01
2022-12-04T22:52:58.934Z,16.99
2022-12-04T22:58:02.725Z,16.98
2022-12-04T23:03:06.084Z,16.92
2022-12-04T23:08:09.689Z,16.92
2022-12-04T23:13:12.987Z,16.89
2022-12-04T23:18:16.392Z,16.87
2022-12-04T23:23:20.818Z,16.82
2022-12-04T23:28:24.244Z,16.80
2022-12-04T23:33:28.190Z,16.78
2022-12-04T23:38:32.310Z,16.79
2022-12-04T23:43:36.143Z,16.80
2022-12-04T23:48:44.343Z,16.80
2022-12-04T23:53:48.074Z,16.78
2022-12-04T23:58:53.778Z,16.78
